Flight Track Log - Related Links

Times and Time Zones

All times are in EDT time to prevent confusion due to time zone crossing. See the ASQ6041 flight status page for this flight to view local times or setup timezone preferences in your user account.

Time Position Orientation Groundspeed Altitude Reporting Facility
EDT Latitude Longitude Course Direction KTS MPH feet Rate Location/Type
Sun 12:24:03 PM 39.9167 -104.6833 64° Northeast 189 217 6,600  Level Denver TRACON
Sun 12:24:31 PM 39.9297 -104.6492 64° Northeast 204 235 7,300 1,500 Climbing Denver Center
Sun 12:25:03 PM 39.9500 -104.6000 62° Northeast 256 295 8,100 1,296 Climbing Denver TRACON
Sun 12:26:36 PM 39.9536 -104.4439 88° East 301 346 10,000 1,006 Climbing Denver Center
Sun 12:27:38 PM 39.9336 -104.3072 101° East 358 412 10,700 927 Climbing Denver Center
Sun 12:28:39 PM 39.9142 -104.2122 105° East 354 407 11,900 1,597 Climbing Denver Center
Sun 12:29:42 PM 39.8894 -104.0369 100° East 378 435 14,000 1,920 Climbing Denver Center
Sun 12:30:44 PM 39.8728 -103.9033 99° East 377 434 15,900 1,742 Climbing Denver Center
Sun 12:31:46 PM 39.8803 -103.7681 86° East 373 429 17,600 1,597 Climbing Denver Center
Sun 12:32:48 PM 39.8972 -103.6206 81° East 377 434 19,200 1,548 Climbing Denver Center
Sun 12:33:50 PM 39.9125 -103.4764 82° East 397 457 20,800 1,597 Climbing Denver Center
Sun 12:34:52 PM 39.9300 -103.3317 81° East 402 463 22,500 1,645 Climbing Denver Center
Sun 12:35:54 PM 39.9464 -103.1856 82° East 403 464 24,200 1,597 Climbing Denver Center
Sun 12:36:56 PM 39.9625 -103.0392 82° East 405 466 25,800 1,597 Climbing Denver Center
Sun 12:37:58 PM 39.9786 -102.8914 82° East 406 467 27,500 1,548 Climbing Denver Center
Sun 12:39:00 PM 39.9961 -102.7203 82° East 405 466 29,000 726 Climbing Denver Center
Sun 12:40:02 PM 40.0111 -102.5789 82° East 429 494 29,000  Level Denver Center
Sun 12:41:04 PM 40.0306 -102.3922 82° East 465 535 29,000  Level Denver Center
Sun 12:42:06 PM 40.0478 -102.2264 82° East 481 554 29,000  Level Denver Center
Sun 12:43:08 PM 40.0681 -102.0261 82° East 499 574 29,000  Level Denver Center
Sun 12:44:10 PM 40.0850 -101.8572 82° East 492 566 29,000  Level Denver Center
Sun 12:45:12 PM 40.1047 -101.6594 83° East 492 566 29,000  Level Denver Center
Sun 12:46:14 PM 40.1208 -101.4911 83° East 488 562 29,000  Level Denver Center
Sun 12:47:16 PM 40.1394 -101.2958 83° East 486 559 29,000  Level Denver Center
Sun 12:48:18 PM 40.1547 -101.1269 83° East 490 564 29,000  Level Denver Center
Sun 12:49:20 PM 40.1733 -100.9331 83° East 484 557 29,000  Level Denver Center
Sun 12:50:23 PM 40.1881 -100.7653 83° East 487 560 29,000  Level Denver Center
Sun 12:51:25 PM 40.2086 -100.5717 82° East 486 559 29,000  Level Denver Center
Sun 12:52:27 PM 40.2403 -100.4122 75° East 478 550 29,000  Level Denver Center
Sun 12:53:29 PM 40.2786 -100.2261 75° East 477 549 29,000  Level Denver Center
Sun 12:54:31 PM 40.3106 -100.0672 75° East 475 547 29,000  Level Denver Center
Sun 12:55:33 PM 40.3475 -99.8811 75° East 474 545 29,000  Level Denver Center
Sun 12:56:35 PM 40.3775 -99.7283 75° East 479 551 29,000  Level Denver Center
Sun 12:57:37 PM 40.4106 -99.5617 75° East 475 547 29,000  Level Denver Center
Sun 12:58:39 PM 40.4503 -99.3597 75° East 478 550 29,000  Level Denver Center
Sun 12:59:43 PM 40.4822 -99.1911 76° East 478 550 29,000  Level Denver Center
Sun 01:00:16 PM 40.5017 -99.0908 76° East 478 550 29,000  Level Minneapolis Center
Sun 01:01:17 PM 40.5333 -98.9231 76° East 477 549 29,000  Level Minneapolis Center
Sun 01:02:19 PM 40.5650 -98.7539 76° East 479 551 29,000  Level Minneapolis Center
Sun 01:03:21 PM 40.5964 -98.5836 76° East 481 554 29,000  Level Minneapolis Center
Sun 01:04:22 PM 40.6289 -98.4147 76° East 480 552 29,000 -1,073 Level Minneapolis Center
Sun 01:05:24 PM 40.6653 -98.2117 77° East 478 550 26,800 -2,274 Descending Minneapolis Center
Sun 01:06:26 PM 40.6961 -98.0403 77° East 482 555 24,300 -2,537 Descending Minneapolis Center
Sun 01:07:27 PM 40.7264 -97.8733 76° East 475 547 21,600 -2,634 Descending Minneapolis Center
Sun 01:08:29 PM 40.7556 -97.7147 76° East 456 525 18,900 -2,659 Descending Minneapolis Center
Sun 01:08:55 PM 40.7453 -97.6375 100° East 434 499 17,700 -2,516 Descending Minneapolis Center
Sun 01:09:31 PM 40.7811 -97.5622 58° Northeast 436 502 16,300 -2,327 Descending Minneapolis Center
Sun 01:10:33 PM 40.8081 -97.4183 76° East 413 475 13,900 -2,311 Descending Minneapolis Center
Sun 01:11:33 PM 40.8217 -97.2650 83° East 371 427 11,600 -1,983 Descending Minneapolis Center
Sun 01:12:28 PM 40.8467 -97.1525 74° East 320 368 10,100 -1,759 Descending Minneapolis Center
Sun 01:13:29 PM 40.8683 -97.0514 74° East 267 307 8,200 -1,835 Descending Minneapolis Center
Sun 01:14:29 PM 40.8906 -96.9639 71° East 253 291 6,400 -1,682 Descending Minneapolis Center
Sun 01:15:41 PM 40.9244 -96.8725 64° Northeast 255 293 4,500 -1,688 Descending Minneapolis Center
Sun 01:16:37 PM 40.9197 -96.7817 94° East 184 212 2,800 -1,333 Descending Minneapolis Center
Sun 01:17:38 PM 40.8889 -96.7572 149° Southeast 132 152 1,900 -465 Descending Minneapolis Center
Sun 01:18:46 PM 40.8611 -96.7656 193° South 162 186 1,800 -88 Descending Minneapolis Center
Sun 01:20:00 PM 40.8500 -96.7500 180° South  Level FlightAware Approximate

Login

Don't have an account? Register now (free) for customized features, flight alerts, and more!